Time;durP1;ratioP1;P1;durP2;ratioP2;P2;SDS_P1;SDS_P2;PMS_P1;PMS_P2;Temp;Humidity;BMP_temperature;BMP_pressure;BME280_temperature;BME280_humidity;BME280_pressure;Samples;Min_cycle;Max_cycle;Signal;HPM_P1;HPM_P2
2022/06/15 00:02:02;;;;;;;3.53;2.70;;;;;;;14.38;66.21;101056.91;5054876;28;20226;-77
2022/06/15 00:04:31;;;;;;;3.60;2.83;;;;;;;14.34;66.44;101041.28;5046166;28;20230;-77
2022/06/15 00:06:57;;;;;;;3.83;3.50;;;;;;;14.33;66.49;101042.19;5054139;28;20324;-77
2022/06/15 00:09:24;;;;;;;3.10;2.60;;;;;;;14.21;66.79;101032.84;5054254;28;20266;-77
2022/06/15 00:11:50;;;;;;;5.07;2.80;;;;;;;14.28;67.00;101018.66;5054680;28;20610;-77
2022/06/15 00:14:20;;;;;;;5.87;2.80;;;;;;;14.12;67.59;101017.31;5054426;28;20259;-77
2022/06/15 00:16:47;;;;;;;3.67;3.20;;;;;;;14.04;67.89;101001.75;5054524;28;20225;-77
2022/06/15 00:19:13;;;;;;;3.50;2.87;;;;;;;14.05;67.72;100995.59;5053668;28;20244;-77
2022/06/15 00:21:41;;;;;;;3.13;2.93;;;;;;;13.99;67.75;100986.09;5054609;28;20209;-77
2022/06/15 00:24:08;;;;;;;3.10;2.80;;;;;;;13.97;67.43;100993.16;5055663;28;20198;-77
2022/06/15 00:26:35;;;;;;;2.77;2.60;;;;;;;13.89;67.78;100987.22;5054782;28;20275;-77
2022/06/15 00:29:01;;;;;;;3.47;3.10;;;;;;;13.92;67.97;100983.69;5054777;28;20234;-77
2022/06/15 00:31:28;;;;;;;4.70;3.27;;;;;;;13.89;68.46;100972.38;5054962;28;20256;-77
2022/06/15 00:33:54;;;;;;;3.47;3.23;;;;;;;13.91;68.11;100980.19;5054820;28;20205;-77
2022/06/15 00:36:22;;;;;;;3.57;3.23;;;;;;;13.94;67.93;100977.50;5054122;28;20221;-77
2022/06/15 00:38:52;;;;;;;4.60;3.30;;;;;;;13.85;68.31;100981.19;5053343;28;20296;-76
2022/06/15 00:41:21;;;;;;;3.33;3.00;;;;;;;13.73;68.83;100973.59;5053812;28;20213;-77
2022/06/15 00:43:49;;;;;;;3.80;3.20;;;;;;;13.73;68.37;100970.97;5054406;28;20255;-77
2022/06/15 00:46:24;;;;;;;4.33;3.03;;;;;;;13.61;68.69;100966.88;5054251;28;20763;-77
2022/06/15 00:48:55;;;;;;;4.03;2.80;;;;;;;13.64;69.34;100956.31;5053554;28;20224;-76
2022/06/15 00:51:24;;;;;;;3.50;3.20;;;;;;;13.50;70.07;100930.41;5046095;28;20664;-77
2022/06/15 00:53:53;;;;;;;3.37;3.17;;;;;;;13.48;70.67;100910.38;5055357;28;20201;-77
2022/06/15 00:56:20;;;;;;;3.40;3.10;;;;;;;13.45;70.93;100890.31;5053669;28;20278;-77
2022/06/15 00:58:51;;;;;;;3.50;3.20;;;;;;;13.38;70.97;100880.88;5053734;28;20638;-77
2022/06/15 01:01:18;;;;;;;3.13;2.93;;;;;;;13.42;71.13;100871.16;5053883;28;20201;-76
2022/06/15 01:03:49;;;;;;;4.87;2.80;;;;;;;13.44;70.68;100875.50;5053618;28;20194;-77
2022/06/15 01:06:26;;;;;;;5.40;2.83;;;;;;;13.55;70.25;100880.47;5053552;28;20381;-77
2022/06/15 01:08:59;;;;;;;4.93;3.70;;;;;;;13.62;70.20;100889.94;5053013;28;20228;-77
2022/06/15 01:11:49;;;;;;;3.10;2.80;;;;;;;13.63;69.93;100894.25;5053366;28;20217;-77
2022/06/15 01:14:43;;;;;;;5.33;2.70;;;;;;;13.63;69.95;100899.50;5054350;28;20209;-77
2022/06/15 01:17:23;;;;;;;3.37;3.07;;;;;;;13.64;69.53;100911.72;5053958;28;20604;-77
2022/06/15 01:20:09;;;;;;;3.90;3.00;;;;;;;13.58;69.48;100926.78;5046625;28;20193;-77
2022/06/15 01:23:03;;;;;;;3.63;2.83;;;;;;;13.52;69.55;100933.00;5054259;28;20201;-77
2022/06/15 01:25:40;;;;;;;3.27;2.97;;;;;;;13.37;70.52;100917.63;5054492;28;20230;-77
2022/06/15 01:28:36;;;;;;;3.13;2.93;;;;;;;13.34;70.21;100901.94;5055300;28;20209;-77
2022/06/15 01:31:14;;;;;;;3.37;2.67;;;;;;;13.42;69.90;100910.50;5054746;28;20198;-77
2022/06/15 01:33:53;;;;;;;3.57;3.23;;;;;;;13.36;70.41;100915.88;5058713;28;20724;-76
2022/06/15 01:36:25;;;;;;;3.20;3.00;;;;;;;13.22;70.78;100901.31;5053993;28;20632;-77
2022/06/15 01:39:00;;;;;;;3.63;3.33;;;;;;;13.16;70.79;100898.84;5053146;28;20193;-77
2022/06/15 01:41:33;;;;;;;3.10;2.80;;;;;;;13.11;70.81;100898.06;5053087;28;20302;-77
2022/06/15 01:44:08;;;;;;;5.80;3.10;;;;;;;13.26;71.37;100881.13;5053284;28;20201;-77
2022/06/15 01:46:40;;;;;;;3.27;2.97;;;;;;;13.15;70.66;100891.84;5053330;28;20228;-77
2022/06/15 01:49:11;;;;;;;5.27;3.53;;;;;;;13.11;70.83;100901.53;5053156;28;20231;-77
2022/06/15 01:51:43;;;;;;;3.13;2.80;;;;;;;13.05;71.17;100895.59;5053389;28;20581;-77
2022/06/15 01:54:14;;;;;;;4.20;2.77;;;;;;;12.99;70.88;100896.56;5054393;28;20706;-78
2022/06/15 01:56:44;;;;;;;4.37;2.90;;;;;;;13.00;71.04;100906.16;5052567;28;20229;-77
2022/06/15 01:59:16;;;;;;;4.10;3.50;;;;;;;12.94;71.39;100908.03;5052750;28;20250;-77
2022/06/15 02:01:53;;;;;;;4.73;3.20;;;;;;;12.90;71.34;100886.28;5052596;28;20251;-77
2022/06/15 02:04:28;;;;;;;4.67;3.67;;;;;;;12.90;71.82;100889.78;5052429;28;20213;-78
2022/06/15 02:07:09;;;;;;;4.27;3.37;;;;;;;12.90;71.62;100876.69;5052215;28;20632;-78
2022/06/15 02:09:45;;;;;;;5.50;4.00;;;;;;;12.88;71.12;100878.47;5052481;28;20232;-78
2022/06/15 02:12:14;;;;;;;3.73;3.27;;;;;;;12.84;71.11;100878.53;5052629;28;20208;-78
2022/06/15 02:14:44;;;;;;;5.83;3.20;;;;;;;12.76;71.41;100876.09;5052595;28;20235;-78
2022/06/15 02:17:17;;;;;;;3.80;3.07;;;;;;;12.79;71.01;100890.91;5052650;28;20275;-78
2022/06/15 02:19:47;;;;;;;3.43;3.13;;;;;;;12.68;71.39;100885.88;5051785;28;20247;-77
2022/06/15 02:22:22;;;;;;;3.67;3.37;;;;;;;12.55;71.68;100880.03;5052208;28;20258;-77
2022/06/15 02:24:52;;;;;;;5.70;3.10;;;;;;;12.52;72.04;100859.13;5044638;28;20193;-78
2022/06/15 02:27:22;;;;;;;3.50;3.00;;;;;;;12.37;72.68;100847.22;5051307;28;20225;-78
2022/06/15 02:29:53;;;;;;;3.27;2.97;;;;;;;12.26;74.02;100812.53;5051716;28;20231;-78
2022/06/15 02:32:21;;;;;;;5.03;3.47;;;;;;;12.30;74.20;100788.88;5052315;28;20216;-78
2022/06/15 02:34:47;;;;;;;4.40;2.70;;;;;;;12.41;73.61;100778.19;5052061;28;20213;-78
2022/06/15 02:37:14;;;;;;;3.47;3.17;;;;;;;12.49;74.03;100789.38;5051987;28;20283;-78
2022/06/15 02:39:40;;;;;;;3.73;3.27;;;;;;;12.64;73.95;100788.16;5051800;28;20677;-78
2022/06/15 02:42:24;;;;;;;3.30;2.90;;;;;;;12.78;74.06;100766.03;5052225;28;20216;-77
2022/06/15 02:44:55;;;;;;;3.70;2.90;;;;;;;12.78;74.42;100785.22;5052471;28;20242;-77
2022/06/15 02:47:27;;;;;;;3.57;2.60;;;;;;;12.79;73.76;100796.59;5052476;28;20288;-78
2022/06/15 02:49:53;;;;;;;4.60;3.00;;;;;;;12.73;73.10;100809.84;5052024;28;20271;-78
2022/06/15 02:52:23;;;;;;;3.17;2.70;;;;;;;12.65;73.23;100823.94;5052034;28;20571;-78
2022/06/15 02:54:53;;;;;;;3.37;2.97;;;;;;;12.58;72.87;100811.84;5044504;28;20247;-77
2022/06/15 02:57:21;;;;;;;3.53;3.10;;;;;;;12.45;73.74;100811.28;5052022;28;20574;-78
2022/06/15 02:59:48;;;;;;;3.93;3.33;;;;;;;12.41;73.37;100801.75;5051811;28;20732;-78
2022/06/15 03:02:16;;;;;;;3.97;3.33;;;;;;;12.39;73.41;100800.94;5051774;28;20830;-78
2022/06/15 03:04:45;;;;;;;6.03;4.27;;;;;;;12.38;72.74;100809.66;5051882;28;20219;-78
2022/06/15 03:07:12;;;;;;;4.57;3.27;;;;;;;12.37;73.34;100807.06;5052139;28;20632;-77
2022/06/15 03:09:39;;;;;;;3.63;3.33;;;;;;;12.41;73.56;100801.75;5052018;28;20232;-78
2022/06/15 03:12:06;;;;;;;5.77;4.63;;;;;;;12.35;73.92;100796.66;5052227;28;20209;-77
2022/06/15 03:14:33;;;;;;;3.47;3.20;;;;;;;12.21;74.25;100781.22;5052312;28;20205;-77
2022/06/15 03:17:00;;;;;;;3.87;3.23;;;;;;;12.21;74.55;100778.59;5052188;28;20228;-78
2022/06/15 03:19:26;;;;;;;4.57;3.50;;;;;;;12.30;73.87;100775.78;5051201;28;20259;-77
2022/06/15 03:21:54;;;;;;;3.50;3.20;;;;;;;12.29;74.37;100773.22;5051942;28;20259;-78
2022/06/15 03:24:21;;;;;;;4.37;3.50;;;;;;;12.28;74.75;100774.94;5051782;28;20266;-78
2022/06/15 03:26:48;;;;;;;3.97;3.53;;;;;;;12.21;74.52;100775.09;5051502;28;20225;-78
2022/06/15 03:29:14;;;;;;;3.40;3.20;;;;;;;12.25;74.52;100763.69;5051504;28;20236;-78
2022/06/15 03:31:40;;;;;;;3.87;3.57;;;;;;;12.19;74.98;100759.47;5051991;28;20267;-77
2022/06/15 03:34:07;;;;;;;5.13;3.40;;;;;;;12.25;74.42;100761.06;5051654;28;20258;-78
2022/06/15 03:36:34;;;;;;;5.17;3.60;;;;;;;12.24;74.74;100764.59;5051893;28;20229;-78
2022/06/15 03:39:01;;;;;;;3.37;3.07;;;;;;;12.22;75.01;100764.63;5051710;28;20267;-78
2022/06/15 03:41:28;;;;;;;3.80;3.50;;;;;;;12.26;74.53;100766.28;5051399;28;20202;-78
2022/06/15 03:43:55;;;;;;;3.37;3.10;;;;;;;12.23;74.55;100768.97;5051570;28;20209;-77
2022/06/15 03:46:23;;;;;;;4.37;3.70;;;;;;;12.15;75.48;100759.53;5051509;28;20735;-78
2022/06/15 03:48:49;;;;;;;3.47;3.27;;;;;;;12.15;75.05;100762.16;5050984;28;20228;-78
2022/06/15 03:51:16;;;;;;;3.33;3.03;;;;;;;12.16;75.34;100756.88;5051683;28;20220;-79
2022/06/15 03:53:42;;;;;;;4.03;3.70;;;;;;;12.19;75.55;100753.34;5051426;28;20196;-78
2022/06/15 03:56:10;;;;;;;4.50;3.20;;;;;;;12.26;75.66;100752.31;5052969;28;20644;-78
2022/06/15 03:58:36;;;;;;;4.30;3.53;;;;;;;12.36;75.19;100740.75;5054600;28;20259;-78
2022/06/15 04:01:03;;;;;;;3.30;3.00;;;;;;;12.36;75.35;100750.38;5055022;28;20213;-78
2022/06/15 04:03:30;;;;;;;3.43;3.17;;;;;;;12.28;75.58;100743.53;5054778;28;20236;-77
2022/06/15 04:05:59;;;;;;;3.93;3.63;;;;;;;12.31;76.08;100729.56;5054926;28;20239;-78
2022/06/15 04:08:37;;;;;;;4.53;3.77;;;;;;;12.23;76.32;100729.72;5054993;28;20208;-78
2022/06/15 04:11:06;;;;;;;4.67;3.30;;;;;;;12.27;76.18;100718.28;5054714;28;20214;-78
2022/06/15 04:13:34;;;;;;;4.17;3.87;;;;;;;12.27;76.64;100720.03;5054737;28;20259;-77
2022/06/15 04:16:07;;;;;;;3.93;3.03;;;;;;;12.37;76.57;100712.81;5054488;28;20713;-78
2022/06/15 04:18:34;;;;;;;3.10;2.90;;;;;;;12.39;76.31;100717.16;5054400;28;20201;-77
2022/06/15 04:21:00;;;;;;;4.90;4.40;;;;;;;12.37;76.72;100716.31;5054195;28;20235;-78
2022/06/15 04:23:27;;;;;;;4.10;3.60;;;;;;;12.38;76.77;100714.56;5054419;28;20200;-78
2022/06/15 04:25:57;;;;;;;5.33;3.63;;;;;;;12.37;76.69;100716.31;5054232;28;20228;-77
2022/06/15 04:28:25;;;;;;;4.90;3.83;;;;;;;12.49;76.01;100725.66;5054185;28;20271;-78
2022/06/15 04:30:53;;;;;;;5.00;4.50;;;;;;;12.55;75.27;100746.47;5053867;28;20643;-77
2022/06/15 04:33:20;;;;;;;5.10;4.70;;;;;;;12.55;75.87;100741.25;5053628;28;20714;-78
2022/06/15 04:35:47;;;;;;;4.70;4.40;;;;;;;12.65;75.26;100747.13;5054280;28;20264;-77
2022/06/15 04:38:13;;;;;;;6.40;5.23;;;;;;;12.66;75.79;100756.69;5054326;28;20269;-78
2022/06/15 04:40:40;;;;;;;6.50;5.70;;;;;;;12.74;74.99;100770.47;5053972;28;20282;-77
2022/06/15 04:43:08;;;;;;;5.33;4.93;;;;;;;12.75;75.97;100763.50;5053975;28;20229;-78
2022/06/15 04:45:35;;;;;;;6.30;4.33;;;;;;;12.78;75.53;100750.31;5053972;28;20754;-77
2022/06/15 04:48:04;;;;;;;5.23;4.73;;;;;;;12.85;74.99;100763.25;5053694;28;20232;-78
2022/06/15 04:50:31;;;;;;;4.13;3.83;;;;;;;12.91;75.99;100752.63;5053419;28;20225;-78
2022/06/15 04:52:58;;;;;;;4.47;4.07;;;;;;;12.90;75.56;100742.16;5053827;28;20204;-78
2022/06/15 04:55:25;;;;;;;8.50;4.70;;;;;;;12.98;74.52;100755.09;5054042;28;20205;-78
2022/06/15 04:57:54;;;;;;;8.13;4.20;;;;;;;13.05;74.74;100782.88;5053976;28;20210;-78
2022/06/15 05:00:22;;;;;;;5.03;3.90;;;;;;;13.09;73.54;100788.00;5053407;28;20208;-78
2022/06/15 05:02:49;;;;;;;5.00;3.90;;;;;;;13.16;73.41;100801.84;5053900;28;20209;-78
2022/06/15 05:05:17;;;;;;;5.40;4.40;;;;;;;13.20;72.62;100832.34;5053422;28;20723;-78
2022/06/15 05:07:45;;;;;;;4.53;4.13;;;;;;;13.27;72.18;100849.63;5053753;28;20671;-77
2022/06/15 05:10:16;;;;;;;5.73;4.13;;;;;;;13.30;72.03;100860.09;5053823;28;20225;-78
2022/06/15 05:12:43;;;;;;;4.57;4.17;;;;;;;13.35;71.47;100862.59;5054034;28;20292;-78
2022/06/15 05:15:13;;;;;;;4.40;4.10;;;;;;;13.40;71.83;100871.22;5053863;28;20679;-78
2022/06/15 05:17:40;;;;;;;4.77;4.40;;;;;;;13.44;72.15;100872.88;5053824;28;20315;-78
2022/06/15 05:20:07;;;;;;;4.53;4.13;;;;;;;13.50;71.76;100874.50;5052118;28;20255;-77
2022/06/15 05:22:36;;;;;;;4.40;4.00;;;;;;;13.54;71.49;100876.13;5053134;28;20589;-78
2022/06/15 05:25:03;;;;;;;5.10;4.20;;;;;;;13.58;71.10;100869.91;5052983;28;20558;-78
2022/06/15 05:27:31;;;;;;;4.90;4.40;;;;;;;13.63;70.94;100881.13;5053479;28;20233;-78
2022/06/15 05:29:58;;;;;;;4.40;4.10;;;;;;;13.69;70.55;100890.63;5053003;28;20610;-78
2022/06/15 05:32:24;;;;;;;4.70;3.50;;;;;;;13.75;70.97;100893.09;5053152;28;20758;-78
2022/06/15 05:34:51;;;;;;;6.03;3.57;;;;;;;13.81;70.27;100894.72;5053143;28;20250;-77
2022/06/15 05:37:18;;;;;;;4.60;4.10;;;;;;;13.85;70.24;100904.22;5052995;28;20229;-78
2022/06/15 05:39:46;;;;;;;4.80;4.10;;;;;;;13.91;70.55;100898.81;5052691;28;20612;-78
2022/06/15 05:42:12;;;;;;;6.27;3.93;;;;;;;13.96;70.63;100901.34;5052865;28;20209;-78
2022/06/15 05:44:48;;;;;;;4.33;3.87;;;;;;;14.01;70.57;100905.59;5053469;28;20218;-78
2022/06/15 05:47:15;;;;;;;6.00;4.07;;;;;;;14.08;70.27;100909.75;5053017;28;20312;-78
2022/06/15 05:49:41;;;;;;;6.90;4.00;;;;;;;14.12;70.05;100907.06;5051846;28;20229;-78
2022/06/15 05:52:08;;;;;;;4.23;3.83;;;;;;;14.19;70.61;100911.22;5052313;28;20206;-77
2022/06/15 05:54:34;;;;;;;4.23;3.83;;;;;;;14.21;71.19;100904.16;5052824;28;20204;-77
2022/06/15 05:57:03;;;;;;;4.67;3.67;;;;;;;14.27;70.13;100896.13;5052662;28;20279;-77
2022/06/15 05:59:29;;;;;;;4.03;3.63;;;;;;;14.34;70.07;100917.84;5052543;28;20198;-77
2022/06/15 06:01:55;;;;;;;3.93;3.57;;;;;;;14.41;70.83;100919.38;5052497;28;20205;-76
2022/06/15 06:04:22;;;;;;;6.00;4.03;;;;;;;14.45;70.58;100900.91;5052362;28;20216;-78
2022/06/15 06:06:50;;;;;;;4.33;3.93;;;;;;;14.53;70.50;100905.06;5052658;28;20276;-77
2022/06/15 06:09:16;;;;;;;4.37;3.83;;;;;;;14.57;70.00;100919.88;5052668;28;20217;-77
2022/06/15 06:11:43;;;;;;;3.97;3.67;;;;;;;14.62;70.09;100931.97;5052655;28;20209;-76
2022/06/15 06:14:11;;;;;;;7.63;4.00;;;;;;;14.69;69.72;100927.44;5052440;28;20270;-77
2022/06/15 06:16:37;;;;;;;6.17;4.10;;;;;;;14.75;69.41;100931.66;5051954;28;20291;-76
2022/06/15 06:19:04;;;;;;;4.23;3.70;;;;;;;14.80;69.10;100940.25;5049652;28;20214;-77
2022/06/15 06:21:30;;;;;;;4.00;3.30;;;;;;;14.85;67.74;100962.88;5051921;28;20206;-77
2022/06/15 06:23:57;;;;;;;4.40;3.53;;;;;;;14.92;67.80;100986.34;5051610;28;20206;-77
2022/06/15 06:26:26;;;;;;;4.80;3.50;;;;;;;14.97;67.23;100998.47;5051489;28;20234;-77
2022/06/15 06:28:54;;;;;;;5.03;3.50;;;;;;;15.02;67.48;101001.81;5051423;28;20253;-77
2022/06/15 06:31:21;;;;;;;4.87;3.50;;;;;;;15.07;67.47;100993.81;5051701;28;20238;-77
2022/06/15 06:33:49;;;;;;;4.93;3.17;;;;;;;15.13;66.87;100995.41;5045501;28;20207;-76
2022/06/15 06:36:29;;;;;;;4.33;3.43;;;;;;;15.21;66.80;101006.56;5039572;28;20715;-77
2022/06/15 06:38:55;;;;;;;4.60;3.67;;;;;;;15.26;66.34;101025.69;5042939;28;20291;-77
2022/06/15 06:41:25;;;;;;;4.53;3.40;;;;;;;15.31;66.21;101044.84;5043090;28;20196;-77
2022/06/15 06:43:53;;;;;;;6.00;3.27;;;;;;;15.36;65.48;101044.69;5040083;28;20604;-76
2022/06/15 06:46:22;;;;;;;3.40;3.10;;;;;;;15.44;65.84;101051.47;5046612;28;20339;-76
2022/06/15 06:48:48;;;;;;;6.30;3.30;;;;;;;15.50;66.54;101050.44;5039802;28;20203;-76
2022/06/15 06:51:15;;;;;;;4.40;3.30;;;;;;;15.56;66.02;101045.00;5045894;28;20282;-76
2022/06/15 06:53:42;;;;;;;5.10;3.17;;;;;;;15.59;65.67;101050.16;5048318;28;20743;-76
2022/06/15 06:56:10;;;;;;;4.73;4.07;;;;;;;15.66;65.74;101048.22;5042099;28;20223;-76
2022/06/15 06:58:37;;;;;;;4.80;3.40;;;;;;;15.71;66.56;101045.44;5042132;28;20207;-77
2022/06/15 07:01:03;;;;;;;3.90;3.50;;;;;;;15.74;66.29;101038.34;5040784;28;20550;-77
2022/06/15 07:03:31;;;;;;;4.53;3.73;;;;;;;15.82;66.59;101038.97;5040387;28;20204;-76
2022/06/15 07:06:01;;;;;;;4.20;3.50;;;;;;;15.89;65.97;101034.34;5042613;28;20228;-76
2022/06/15 07:08:29;;;;;;;4.13;3.73;;;;;;;15.95;65.91;101052.59;5043374;28;20209;-77
2022/06/15 07:10:55;;;;;;;5.90;4.00;;;;;;;16.01;66.66;101031.31;5036389;28;20273;-77
2022/06/15 07:13:22;;;;;;;7.20;3.80;;;;;;;16.08;66.21;101024.97;5042818;28;20259;-77
2022/06/15 07:15:49;;;;;;;4.13;3.50;;;;;;;16.13;67.15;101014.25;5043998;28;20220;-78
2022/06/15 07:18:15;;;;;;;4.50;3.50;;;;;;;16.23;65.63;101035.91;5044478;28;20257;-78
2022/06/15 07:20:43;;;;;;;5.97;3.90;;;;;;;16.28;65.43;101050.66;5044591;28;20210;-78
2022/06/15 07:23:10;;;;;;;9.20;3.93;;;;;;;16.38;65.31;101071.44;5054027;28;20727;-78
2022/06/15 07:25:37;;;;;;;5.67;3.97;;;;;;;16.43;65.29;101058.94;5045835;28;20223;-78
2022/06/15 07:28:04;;;;;;;5.17;3.50;;;;;;;16.51;64.67;101069.25;5046428;28;20292;-78
2022/06/15 07:30:31;;;;;;;5.87;2.80;;;;;;;16.56;64.37;101076.09;5040380;28;20223;-78
2022/06/15 07:32:57;;;;;;;5.97;3.20;;;;;;;16.63;64.71;101085.53;5047509;28;20209;-77
2022/06/15 07:35:26;;;;;;;4.33;3.97;;;;;;;16.72;65.24;101071.16;5044582;28;20200;-77
2022/06/15 07:37:54;;;;;;;5.83;3.77;;;;;;;16.78;64.84;101068.31;5042986;28;20207;-77
2022/06/15 07:40:24;;;;;;;4.23;3.83;;;;;;;16.84;67.26;101036.47;5043707;28;20613;-77
2022/06/15 07:42:53;;;;;;;6.23;3.43;;;;;;;16.94;66.21;101036.16;5046217;28;20207;-76
2022/06/15 07:45:21;;;;;;;6.30;3.73;;;;;;;17.02;65.34;101042.00;5044216;28;20252;-77
2022/06/15 07:50:33;;;;;;;3.90;3.50;;;;;;;17.14;63.78;101069.72;5044957;28;20226;-77
2022/06/15 07:53:03;;;;;;;10.57;4.60;;;;;;;17.19;64.23;101081.84;5048308;28;20201;-77
2022/06/15 07:55:33;;;;;;;5.20;3.77;;;;;;;17.27;64.74;101071.00;5048105;28;20204;-77
2022/06/15 07:58:01;;;;;;;7.77;3.40;;;;;;;17.34;63.40;101071.63;5042984;28;20197;-77
2022/06/15 08:00:28;;;;;;;4.93;3.37;;;;;;;17.42;62.16;101115.31;5044484;28;20286;-77
2022/06/15 08:02:54;;;;;;;4.43;3.47;;;;;;;17.46;63.05;101121.31;5042855;28;20216;-77
2022/06/15 08:05:22;;;;;;;5.17;4.07;;;;;;;17.54;61.91;101115.75;5045541;28;20212;-77
2022/06/15 08:07:49;;;;;;;10.13;4.17;;;;;;;17.56;62.64;101130.66;5042901;28;20621;-77
2022/06/15 08:10:20;;;;;;;6.67;4.43;;;;;;;17.59;65.12;101103.25;5041735;28;20225;-77
2022/06/15 08:12:48;;;;;;;5.03;4.00;;;;;;;17.63;66.91;101018.59;5042517;28;20201;-77
2022/06/15 08:15:14;;;;;;;4.93;3.63;;;;;;;17.76;63.43;101044.50;5039876;28;20205;-77
2022/06/15 08:17:44;;;;;;;4.47;3.53;;;;;;;17.86;63.24;101088.19;5043917;28;20262;-77
2022/06/15 08:20:14;;;;;;;5.70;4.13;;;;;;;17.94;61.82;101106.34;5044662;28;20617;-77
2022/06/15 08:22:45;;;;;;;4.23;3.60;;;;;;;18.00;60.53;101143.13;5050221;28;20887;-77
2022/06/15 08:25:14;;;;;;;5.27;3.40;;;;;;;18.04;59.54;101185.22;5047457;28;20601;-77
2022/06/15 08:27:43;;;;;;;7.47;4.13;;;;;;;18.06;61.85;101186.00;5044209;28;20196;-77
2022/06/15 08:30:11;;;;;;;7.00;3.70;;;;;;;18.16;59.88;101172.47;5042252;28;20204;-77
2022/06/15 08:32:38;;;;;;;5.77;3.43;;;;;;;18.24;59.97;101176.50;5043962;28;20211;-77
2022/06/15 08:35:06;;;;;;;4.07;3.67;;;;;;;18.32;60.25;101183.28;5042224;28;20617;-77
2022/06/15 08:37:33;;;;;;;6.33;3.33;;;;;;;18.38;59.32;101183.91;5044870;28;20224;-77
2022/06/15 08:39:59;;;;;;;6.90;3.80;;;;;;;18.45;59.77;101195.06;5044483;28;20671;-77
2022/06/15 08:42:34;;;;;;;4.40;3.60;;;;;;;18.45;59.94;101182.75;5041645;28;20688;-77
2022/06/15 08:45:11;;;;;;;6.83;4.03;;;;;;;18.55;60.15;101185.00;5042606;28;20192;-78
2022/06/15 08:47:55;;;;;;;8.50;3.77;;;;;;;18.62;60.16;101179.41;5042236;28;20602;-77
2022/06/15 08:50:33;;;;;;;6.47;4.07;;;;;;;18.71;60.43;101172.00;5038999;28;20225;-77
2022/06/15 08:53:04;;;;;;;4.10;3.70;;;;;;;18.79;58.68;101194.63;5052475;28;20291;-77
2022/06/15 08:55:39;;;;;;;6.93;3.33;;;;;;;18.85;59.41;101212.03;5054447;28;20205;-78
2022/06/15 08:58:12;;;;;;;3.87;3.40;;;;;;;18.91;59.73;101205.59;5054137;28;20670;-77
2022/06/15 09:00:42;;;;;;;3.93;3.60;;;;;;;19.00;59.19;101198.16;5053401;28;20218;-77
2022/06/15 09:03:18;;;;;;;5.23;3.43;;;;;;;19.01;58.72;101199.88;5053307;28;20273;-78
2022/06/15 09:06:00;;;;;;;5.53;3.13;;;;;;;19.11;59.24;101218.00;5054002;28;20297;-77
2022/06/15 09:08:48;;;;;;;4.60;3.23;;;;;;;19.20;57.92;101213.19;5054125;28;20204;-77
2022/06/15 09:11:22;;;;;;;4.60;3.20;;;;;;;19.27;57.79;101223.53;5054327;28;20232;-77
2022/06/15 09:14:01;;;;;;;6.47;2.87;;;;;;;19.31;58.31;101231.28;5054404;28;20262;-77
2022/06/15 09:16:37;;;;;;;4.13;2.70;;;;;;;19.33;59.14;101210.03;5054256;28;20742;-78
2022/06/15 09:19:08;;;;;;;4.27;2.60;;;;;;;19.42;57.43;101222.84;5054233;28;20192;-78
2022/06/15 09:21:38;;;;;;;3.63;2.43;;;;;;;19.44;56.60;101266.91;5053951;28;20213;-77
2022/06/15 09:24:10;;;;;;;6.30;2.50;;;;;;;19.54;56.55;101269.13;5054389;28;20194;-77
2022/06/15 09:26:43;;;;;;;3.53;2.00;;;;;;;19.60;56.00;101309.47;5053994;28;20290;-77
2022/06/15 09:29:16;;;;;;;2.10;1.90;;;;;;;19.69;56.07;101294.09;5054013;28;20220;-77
2022/06/15 09:31:50;;;;;;;2.53;2.20;;;;;;;19.78;55.39;101299.91;5054285;28;20231;-77
2022/06/15 09:34:22;;;;;;;2.37;1.77;;;;;;;19.86;54.29;101331.38;5053802;28;20582;-77
2022/06/15 09:36:51;;;;;;;3.17;1.67;;;;;;;19.90;54.35;101319.72;5053920;28;20718;-78
2022/06/15 09:39:19;;;;;;;4.63;2.20;;;;;;;19.96;54.07;101355.66;5054198;28;20214;-78
2022/06/15 09:41:51;;;;;;;2.60;1.93;;;;;;;20.03;53.49;101352.66;5054196;28;20213;-78
2022/06/15 09:44:25;;;;;;;2.43;2.23;;;;;;;20.12;56.01;101354.06;5054053;28;20209;-78
2022/06/15 09:46:59;;;;;;;3.87;2.00;;;;;;;20.18;54.94;101310.53;5053705;28;20941;-78
2022/06/15 09:49:41;;;;;;;2.47;1.70;;;;;;;20.27;52.97;101325.16;5053741;28;20209;-78
2022/06/15 09:52:17;;;;;;;3.23;1.73;;;;;;;20.35;52.09;101365.44;5053766;28;20316;-78
2022/06/15 09:54:55;;;;;;;1.87;1.77;;;;;;;20.40;51.90;101401.44;5053393;28;20211;-78
2022/06/15 09:57:22;;;;;;;3.13;1.80;;;;;;;20.51;51.73;101416.84;5053644;28;20307;-78
2022/06/15 09:59:48;;;;;;;1.83;1.60;;;;;;;20.56;50.73;101409.56;5053051;28;20205;-78
2022/06/15 10:02:22;;;;;;;1.67;1.47;;;;;;;20.61;51.38;101436.78;5053042;28;20212;-78
2022/06/15 10:04:49;;;;;;;2.83;1.83;;;;;;;20.68;50.50;101425.88;5052212;28;20200;-78
2022/06/15 10:07:25;;;;;;;3.70;1.60;;;;;;;20.80;51.91;101383.72;5052608;28;20237;-78
2022/06/15 10:09:56;;;;;;;3.17;2.30;;;;;;;20.90;50.75;101413.34;5052455;28;20240;-78
2022/06/15 10:12:57;;;;;;;3.10;1.57;;;;;;;20.96;50.38;101428.13;5052524;28;20307;-78
2022/06/15 10:15:28;;;;;;;2.60;1.60;;;;;;;21.07;49.82;101443.53;5053673;28;20209;-78
2022/06/15 10:18:00;;;;;;;2.10;1.70;;;;;;;21.12;50.64;101462.78;5052542;28;20212;-78
2022/06/15 10:20:31;;;;;;;4.47;1.50;;;;;;;21.21;48.77;101444.63;5053654;28;20672;-79
2022/06/15 10:22:59;;;;;;;1.67;1.40;;;;;;;21.25;48.18;101494.91;5054087;28;20205;-78
2022/06/15 10:25:28;;;;;;;2.80;1.70;;;;;;;21.26;48.72;101513.44;5053336;28;20259;-78
2022/06/15 10:28:14;;;;;;;3.57;1.50;;;;;;;21.31;49.29;101482.22;5053510;28;20259;-78
2022/06/15 10:30:52;;;;;;;4.97;1.80;;;;;;;21.44;49.52;101479.88;5052191;28;20236;-78
2022/06/15 10:33:20;;;;;;;2.23;1.70;;;;;;;21.48;47.26;101478.78;5052550;28;20601;-78
2022/06/15 10:35:52;;;;;;;3.67;1.67;;;;;;;21.51;47.71;101521.16;5051606;28;20226;-78
2022/06/15 10:38:19;;;;;;;2.37;1.77;;;;;;;21.58;47.27;101527.88;5052124;28;20705;-78
2022/06/15 10:40:56;;;;;;;3.00;1.73;;;;;;;21.61;47.25;101535.72;5052939;28;20213;-78
2022/06/15 10:43:28;;;;;;;1.87;1.77;;;;;;;21.70;48.92;101555.69;5053000;28;20251;-78
2022/06/15 10:45:59;;;;;;;1.93;1.80;;;;;;;21.79;46.68;101496.78;5053290;28;20279;-78
2022/06/15 10:48:32;;;;;;;2.50;1.50;;;;;;;21.90;47.96;101543.22;5053474;28;20247;-78
2022/06/15 10:51:02;;;;;;;6.40;1.83;;;;;;;22.04;48.48;101500.00;5053407;28;20224;-78
2022/06/15 10:53:35;;;;;;;3.03;1.53;;;;;;;22.16;46.16;101502.03;5053336;28;20694;-78
2022/06/15 11:04:29;;;;;;;1.73;1.50;;;;;;;22.46;44.76;101573.28;5054477;28;20196;-78
2022/06/15 11:07:03;;;;;;;2.73;1.73;;;;;;;22.54;44.73;101608.38;5058026;28;20225;-79
2022/06/15 11:09:33;;;;;;;2.83;1.60;;;;;;;22.65;44.32;101559.91;5059031;28;20250;-79
2022/06/15 11:12:02;;;;;;;2.10;1.87;;;;;;;22.76;43.67;101568.22;5059135;28;20229;-79
2022/06/15 11:14:32;;;;;;;3.13;1.77;;;;;;;22.79;43.15;101606.19;5058374;28;20209;-78
2022/06/15 11:20:34;;;;;;;1.70;1.37;;;;;;;22.99;42.91;101620.25;5058134;28;20189;-78
2022/06/15 11:23:06;;;;;;;2.73;1.63;;;;;;;23.22;42.86;101618.22;5057976;28;20273;-79
2022/06/15 11:25:42;;;;;;;4.20;1.77;;;;;;;23.37;43.27;101626.25;5058496;28;20263;-78
2022/06/15 11:28:17;;;;;;;2.70;1.70;;;;;;;23.56;43.13;101596.78;5060606;28;20186;-78
2022/06/15 11:30:52;;;;;;;3.50;1.93;;;;;;;23.89;42.79;101611.03;5060790;28;20354;-78
2022/06/15 11:33:23;;;;;;;6.20;2.10;;;;;;;24.34;41.06;101612.88;5060004;28;20197;-79
2022/06/15 11:36:01;;;;;;;2.33;1.73;;;;;;;25.26;39.37;101643.09;5058543;28;20232;-79
2022/06/15 11:38:37;;;;;;;2.10;1.90;;;;;;;26.55;38.64;101705.28;5060514;28;20299;-79
2022/06/15 11:41:14;;;;;;;2.63;1.87;;;;;;;28.01;36.28;101723.94;5061027;28;20212;-80
2022/06/15 11:43:44;;;;;;;2.70;2.50;;;;;;;29.71;32.82;101773.91;5060637;28;20253;-80
2022/06/15 11:46:23;;;;;;;3.43;2.97;;;;;;;31.17;30.82;101882.56;5061224;28;20230;-80
2022/06/15 11:49:02;;;;;;;2.30;2.10;;;;;;;32.40;27.95;101926.91;5061145;28;20209;-81
2022/06/15 11:51:41;;;;;;;3.70;2.10;;;;;;;33.19;27.38;101958.66;5060875;28;20233;-80
2022/06/15 11:54:17;;;;;;;2.00;1.67;;;;;;;34.02;26.10;101942.00;5060514;28;20703;-78